Time;durP1;ratioP1;P1;durP2;ratioP2;P2;SDS_P1;SDS_P2;PMS_P1;PMS_P2;Temp;Humidity;BMP_temperature;BMP_pressure;BME280_temperature;BME280_humidity;BME280_pressure;Samples;Min_cycle;Max_cycle;Signal;HPM_P1;HPM_P2
2022/09/11 00:00:40;;;;;;;6.28;3.85;;;;;;;18.29;64.41;94670.47;5117256;27;20023;-71
2022/09/11 00:03:06;;;;;;;7.82;4.03;;;;;;;18.27;64.08;94673.25;5134028;27;20480;-71
2022/09/11 00:05:37;;;;;;;6.32;3.80;;;;;;;18.24;64.75;94673.59;5117199;27;20529;-71
2022/09/11 00:08:02;;;;;;;6.80;4.57;;;;;;;18.25;64.87;94680.53;5134303;27;20038;-71
2022/09/11 00:10:28;;;;;;;8.85;4.45;;;;;;;18.17;65.89;94675.34;5114426;27;20031;-71
2022/09/11 00:12:53;;;;;;;6.00;4.07;;;;;;;18.19;65.29;94675.97;5096739;28;20042;-71
2022/09/11 00:15:18;;;;;;;5.20;4.13;;;;;;;18.14;65.26;94662.53;5113520;28;20035;-71
2022/09/11 00:17:44;;;;;;;4.57;3.85;;;;;;;18.24;65.49;94678.06;5120066;27;20104;-71
2022/09/11 00:20:09;;;;;;;5.40;4.18;;;;;;;18.20;65.29;94664.47;5135133;27;20027;-71
2022/09/11 00:22:35;;;;;;;5.63;4.20;;;;;;;18.20;65.99;94677.59;5132103;27;20039;-70
2022/09/11 00:25:00;;;;;;;8.10;4.88;;;;;;;18.20;65.61;94682.03;5133838;27;20035;-71
2022/09/11 00:27:26;;;;;;;6.60;4.53;;;;;;;18.17;66.08;94677.97;5133882;27;20043;-71
2022/09/11 00:29:53;;;;;;;5.85;4.82;;;;;;;18.16;66.17;94681.56;5133729;27;20042;-70
2022/09/11 00:32:18;;;;;;;5.60;4.75;;;;;;;18.12;66.31;94677.66;5117089;27;20039;-70
2022/09/11 00:34:45;;;;;;;6.18;4.70;;;;;;;18.10;66.01;94671.75;5107726;28;20092;-71
2022/09/11 00:37:11;;;;;;;6.30;5.00;;;;;;;18.05;65.01;94668.84;5114408;28;20562;-71
2022/09/11 00:39:36;;;;;;;5.35;4.80;;;;;;;18.04;65.56;94681.16;5113280;28;20036;-71
2022/09/11 00:42:04;;;;;;;6.22;5.18;;;;;;;18.02;65.85;94679.72;5122072;27;20023;-71
2022/09/11 00:44:29;;;;;;;6.45;5.60;;;;;;;18.02;65.30;94696.28;5116619;27;20042;-71
2022/09/11 00:46:59;;;;;;;7.47;5.72;;;;;;;17.91;65.57;94673.03;5134289;27;20039;-70
2022/09/11 00:49:45;;;;;;;9.02;5.75;;;;;;;17.90;65.66;94678.50;5112727;28;20023;-70
2022/09/11 00:52:27;;;;;;;8.02;5.40;;;;;;;17.90;66.37;94686.38;5113381;28;20035;-71
2022/09/11 00:54:55;;;;;;;7.18;5.28;;;;;;;17.88;66.18;94685.72;5095662;28;20122;-71
2022/09/11 00:57:22;;;;;;;6.28;5.47;;;;;;;17.82;66.71;94680.16;5105954;28;20048;-71
2022/09/11 00:59:49;;;;;;;8.18;5.65;;;;;;;17.83;66.25;94684.44;5112602;28;20034;-71
2022/09/11 01:02:16;;;;;;;6.70;5.97;;;;;;;17.82;65.78;94682.81;5095629;28;20120;-71
2022/09/11 01:04:42;;;;;;;6.93;5.38;;;;;;;17.79;65.94;94675.28;5116039;27;20109;-71
2022/09/11 01:07:07;;;;;;;7.78;5.55;;;;;;;17.77;66.48;94682.47;5131243;27;20110;-70
2022/09/11 01:09:33;;;;;;;7.00;5.57;;;;;;;17.71;66.92;94683.16;5132926;27;20031;-71
2022/09/11 01:12:13;;;;;;;8.50;5.97;;;;;;;17.68;66.79;94685.34;5132973;27;20113;-71
2022/09/11 01:14:52;;;;;;;8.10;5.43;;;;;;;17.60;67.42;94681.75;5113586;27;20031;-71
2022/09/11 01:17:25;;;;;;;7.43;5.85;;;;;;;17.59;67.57;94685.38;5110876;27;20051;-71
2022/09/11 01:20:22;;;;;;;7.57;6.13;;;;;;;17.54;67.57;94687.69;5132801;27;20488;-70
2022/09/11 01:23:01;;;;;;;8.00;5.80;;;;;;;17.50;68.17;94683.00;5131898;27;20023;-71
2022/09/11 01:25:58;;;;;;;7.47;6.40;;;;;;;17.42;68.37;94687.28;5116419;27;20058;-71
2022/09/11 01:29:10;;;;;;;7.75;6.35;;;;;;;17.38;68.21;94686.00;5132665;27;20050;-71
2022/09/11 01:31:57;;;;;;;9.03;6.27;;;;;;;17.29;68.87;94689.63;5125846;27;20062;-71
2022/09/11 01:34:55;;;;;;;7.38;6.22;;;;;;;17.26;68.60;94689.97;5104926;28;20135;-71
2022/09/11 01:37:28;;;;;;;7.53;6.07;;;;;;;17.20;68.49;94675.72;5094841;28;20470;-71
2022/09/11 01:40:07;;;;;;;7.32;6.13;;;;;;;17.20;68.85;94686.22;5095326;28;20097;-71
2022/09/11 01:42:32;;;;;;;6.40;5.80;;;;;;;17.17;68.91;94675.25;5105122;27;20031;-71
2022/09/11 01:44:58;;;;;;;6.80;6.10;;;;;;;17.18;69.24;94676.88;5115178;27;20039;-70
2022/09/11 01:47:23;;;;;;;7.13;6.40;;;;;;;17.13;69.13;94669.53;5131984;27;20047;-70
2022/09/11 01:49:54;;;;;;;6.57;5.88;;;;;;;17.07;68.84;94664.13;5114546;27;20103;-70
2022/09/11 01:52:22;;;;;;;6.95;6.25;;;;;;;17.08;68.94;94671.03;5113811;27;20549;-70
2022/09/11 01:54:50;;;;;;;9.53;6.23;;;;;;;17.09;69.00;94662.19;5115126;27;20084;-71
2022/09/11 01:57:32;;;;;;;6.40;5.80;;;;;;;17.05;69.27;94668.72;5098087;27;20038;-71
2022/09/11 01:59:59;;;;;;;6.78;6.07;;;;;;;17.03;69.41;94668.09;5132006;27;20066;-70
2022/09/11 02:02:28;;;;;;;6.20;5.43;;;;;;;16.96;69.31;94660.91;5113216;27;20045;-73
2022/09/11 02:05:18;;;;;;;8.70;6.53;;;;;;;16.89;69.75;94662.56;5131882;27;20096;-73
2022/09/11 02:08:01;;;;;;;6.40;5.80;;;;;;;16.83;69.84;94652.75;5122762;27;20061;-73
2022/09/11 02:10:35;;;;;;;7.30;5.35;;;;;;;16.70;70.19;94657.69;5096787;27;20595;-73
2022/09/11 02:13:14;;;;;;;6.57;5.47;;;;;;;16.78;69.72;94649.81;5091599;27;20388;-73
2022/09/11 02:15:51;;;;;;;5.97;5.33;;;;;;;16.78;69.73;94656.88;5152459;27;20030;-73
2022/09/11 02:18:23;;;;;;;6.88;5.50;;;;;;;16.79;69.58;94651.44;5135889;27;20058;-73
2022/09/11 02:20:50;;;;;;;7.93;5.43;;;;;;;16.83;69.90;94646.72;5132803;27;20450;-73
2022/09/11 02:23:15;;;;;;;6.57;5.28;;;;;;;16.77;69.38;94642.97;5132958;27;20035;-73
2022/09/11 02:25:41;;;;;;;8.85;5.75;;;;;;;16.74;69.57;94653.72;5097395;27;20503;-74
2022/09/11 02:28:06;;;;;;;5.82;5.20;;;;;;;16.70;69.31;94655.06;5132398;27;20023;-73
2022/09/11 02:30:32;;;;;;;7.57;5.03;;;;;;;16.63;69.19;94662.78;5149659;27;20019;-73
2022/09/11 02:32:57;;;;;;;7.43;5.20;;;;;;;16.61;69.00;94658.69;5152188;27;20079;-73
2022/09/11 02:35:23;;;;;;;4.90;4.40;;;;;;;16.61;68.58;94649.03;5151966;27;20034;-73
2022/09/11 02:37:58;;;;;;;6.60;4.57;;;;;;;16.65;68.77;94650.31;5134736;27;20168;-74
2022/09/11 02:40:24;;;;;;;8.52;5.53;;;;;;;16.63;69.20;94661.94;5134690;27;20423;-73
2022/09/11 02:43:00;;;;;;;7.15;4.70;;;;;;;16.55;69.14;94657.56;5152999;27;20038;-73
2022/09/11 02:45:40;;;;;;;5.55;4.82;;;;;;;16.44;69.41;94657.91;5151817;27;20037;-73
2022/09/11 02:48:44;;;;;;;5.82;5.13;;;;;;;16.32;69.71;94662.66;5134598;27;20042;-71
2022/09/11 02:51:30;;;;;;;5.85;5.25;;;;;;;16.24;69.74;94655.66;5120184;27;20127;-71
2022/09/11 02:54:04;;;;;;;7.05;5.43;;;;;;;16.11;70.41;94652.69;5151740;27;20035;-71
2022/09/11 02:56:29;;;;;;;6.22;4.95;;;;;;;16.16;70.36;94654.81;5151625;27;20037;-71
2022/09/11 02:58:55;;;;;;;5.68;5.13;;;;;;;16.07;70.09;94654.84;5151270;27;20113;-71
2022/09/11 03:01:22;;;;;;;6.72;5.05;;;;;;;16.01;70.05;94652.84;5097950;28;20091;-71
2022/09/11 03:03:47;;;;;;;5.45;4.68;;;;;;;15.95;70.55;94652.69;5131511;27;20053;-71
2022/09/11 03:06:21;;;;;;;7.22;5.15;;;;;;;15.85;70.69;94645.00;5151413;27;20031;-73
2022/09/11 03:08:47;;;;;;;5.37;4.87;;;;;;;15.82;70.82;94653.19;5151064;27;20031;-74
2022/09/11 03:11:16;;;;;;;6.55;5.00;;;;;;;15.79;70.57;94654.31;5110942;27;20036;-74
2022/09/11 03:13:42;;;;;;;5.93;4.60;;;;;;;15.75;70.82;94662.69;5126231;27;19915;-73
2022/09/11 03:16:08;;;;;;;6.78;4.88;;;;;;;15.68;71.26;94656.41;5113181;28;20569;-73
2022/09/11 03:18:33;;;;;;;5.35;4.80;;;;;;;15.68;71.65;94659.03;5132003;27;20055;-73
2022/09/11 03:20:59;;;;;;;5.70;5.00;;;;;;;15.67;71.56;94657.41;5126815;27;20060;-73
2022/09/11 03:23:25;;;;;;;5.35;4.85;;;;;;;15.72;71.36;94666.44;5109945;28;20101;-73
2022/09/11 03:25:51;;;;;;;5.63;4.80;;;;;;;15.67;71.39;94668.69;5093403;28;20040;-73
2022/09/11 03:28:16;;;;;;;5.70;4.90;;;;;;;15.59;71.39;94668.69;5093004;28;20016;-73
2022/09/11 03:30:42;;;;;;;7.30;4.80;;;;;;;15.46;71.46;94674.41;5111259;28;20451;-73
2022/09/11 03:33:07;;;;;;;5.45;4.95;;;;;;;15.33;72.21;94671.41;5111590;28;19984;-73
2022/09/11 03:35:33;;;;;;;6.43;5.25;;;;;;;15.29;72.65;94673.50;5109975;28;20024;-73
2022/09/11 03:37:59;;;;;;;5.28;4.78;;;;;;;15.31;72.67;94674.16;5129925;28;20039;-73
2022/09/11 03:40:24;;;;;;;6.05;4.75;;;;;;;15.32;72.62;94686.28;5130454;28;20404;-73
2022/09/11 03:42:50;;;;;;;4.65;4.20;;;;;;;15.27;72.16;94690.38;5128537;28;20031;-73
2022/09/11 03:45:15;;;;;;;6.25;4.90;;;;;;;15.22;72.67;94680.38;5130426;28;20023;-73
2022/09/11 03:47:41;;;;;;;6.38;4.70;;;;;;;15.18;72.79;94677.25;5130531;28;20042;-73
2022/09/11 03:50:07;;;;;;;5.50;4.82;;;;;;;15.28;72.20;94687.56;5131807;27;20038;-73
2022/09/11 03:52:33;;;;;;;5.57;4.43;;;;;;;15.18;72.07;94681.66;5099352;28;20034;-74
2022/09/11 03:54:59;;;;;;;9.02;4.50;;;;;;;15.18;71.98;94686.88;5092741;28;20027;-73
2022/09/11 03:57:24;;;;;;;5.85;4.85;;;;;;;15.11;72.26;94691.94;5109535;28;20036;-73
2022/09/11 03:59:50;;;;;;;10.13;5.18;;;;;;;15.11;72.41;94701.59;5131520;27;20508;-73
2022/09/11 04:02:15;;;;;;;5.15;4.65;;;;;;;15.08;72.67;94700.09;5116053;27;20035;-73
2022/09/11 04:04:41;;;;;;;7.63;5.15;;;;;;;15.05;72.43;94697.81;5092836;28;20027;-73
2022/09/11 04:07:06;;;;;;;5.97;4.75;;;;;;;15.10;72.52;94705.16;5100623;28;20035;-73
2022/09/11 04:09:32;;;;;;;5.53;4.75;;;;;;;15.02;72.64;94698.13;5113072;28;20546;-73
2022/09/11 04:11:57;;;;;;;5.72;5.07;;;;;;;14.96;73.10;94694.34;5131529;27;20032;-73
2022/09/11 04:14:23;;;;;;;5.65;4.93;;;;;;;14.93;73.17;94696.41;5128300;28;20035;-73
2022/09/11 04:16:48;;;;;;;6.00;5.03;;;;;;;14.90;73.73;94694.94;5131164;27;20610;-73
2022/09/11 04:19:14;;;;;;;6.78;5.20;;;;;;;14.86;73.44;94693.63;5113017;28;20035;-73
2022/09/11 04:21:39;;;;;;;6.78;5.50;;;;;;;14.90;73.31;94692.31;5108786;28;20088;-73
2022/09/11 04:24:05;;;;;;;6.20;5.05;;;;;;;14.91;73.98;94693.16;5109534;28;20084;-73
2022/09/11 04:26:31;;;;;;;5.95;5.00;;;;;;;14.97;73.85;94689.91;5109473;28;20047;-73
2022/09/11 04:28:57;;;;;;;6.43;5.30;;;;;;;15.01;73.95;94682.56;5115997;27;20031;-74
2022/09/11 04:31:23;;;;;;;6.00;5.07;;;;;;;15.03;73.89;94683.25;5116557;27;20039;-71
2022/09/11 04:33:48;;;;;;;6.03;5.22;;;;;;;15.11;73.71;94688.50;5131935;27;20042;-73
2022/09/11 04:36:16;;;;;;;6.15;5.45;;;;;;;15.06;73.53;94699.44;5133437;27;20031;-73
2022/09/11 04:38:42;;;;;;;5.65;5.15;;;;;;;15.01;73.79;94688.63;5116577;27;20503;-73
2022/09/11 04:41:07;;;;;;;8.93;5.68;;;;;;;14.97;74.26;94684.69;5133075;27;20035;-73
2022/09/11 04:43:34;;;;;;;6.10;5.50;;;;;;;15.05;74.54;94697.81;5129463;27;20031;-73
2022/09/11 04:46:08;;;;;;;6.15;5.55;;;;;;;15.11;74.58;94702.41;5116420;27;20024;-73
2022/09/11 04:48:35;;;;;;;5.68;5.07;;;;;;;15.16;74.69;94702.75;5098598;27;20416;-73
2022/09/11 04:51:05;;;;;;;6.60;5.82;;;;;;;15.19;74.83;94697.19;5125095;27;20025;-73
2022/09/11 04:53:31;;;;;;;8.77;5.50;;;;;;;15.24;74.42;94693.28;5114713;27;20031;-73
2022/09/11 04:56:12;;;;;;;7.47;5.80;;;;;;;15.34;74.17;94691.34;5131702;27;20265;-73
2022/09/11 04:58:37;;;;;;;7.50;5.10;;;;;;;15.47;73.98;94696.97;5102223;28;19922;-74
2022/09/11 05:01:12;;;;;;;5.80;5.30;;;;;;;15.56;74.08;94685.53;5119370;27;20052;-73
2022/09/11 05:03:38;;;;;;;7.60;5.05;;;;;;;15.62;73.73;94695.34;5127646;27;20152;-74
2022/09/11 05:06:07;;;;;;;5.95;5.22;;;;;;;15.73;74.05;94689.03;5115950;27;20421;-74
2022/09/11 05:08:32;;;;;;;5.77;5.17;;;;;;;15.85;73.35;94706.06;5111909;27;20457;-74
2022/09/11 05:10:59;;;;;;;6.60;4.90;;;;;;;15.92;73.47;94705.41;5109056;28;20107;-72
2022/09/11 05:13:25;;;;;;;5.70;5.10;;;;;;;15.84;72.34;94687.88;5120041;27;20503;-72
2022/09/11 05:15:51;;;;;;;5.60;5.05;;;;;;;15.93;72.84;94704.44;5087641;27;20106;-73
2022/09/11 05:18:16;;;;;;;8.17;5.37;;;;;;;16.09;73.12;94710.50;5104346;27;20050;-72
2022/09/11 05:20:42;;;;;;;5.18;4.63;;;;;;;16.27;73.13;94710.34;5114238;27;20400;-72
2022/09/11 05:23:10;;;;;;;4.93;4.43;;;;;;;16.42;71.27;94707.06;5118081;27;20111;-73
2022/09/11 05:25:35;;;;;;;6.13;4.75;;;;;;;16.50;71.74;94705.25;5092173;27;20055;-73
2022/09/11 05:28:02;;;;;;;5.97;4.65;;;;;;;16.63;71.45;94701.28;5120781;27;19920;-72
2022/09/11 05:30:28;;;;;;;7.50;4.88;;;;;;;16.73;71.10;94705.38;5132013;27;20038;-72
2022/09/11 05:32:54;;;;;;;5.07;4.60;;;;;;;16.80;71.49;94716.06;5131936;27;20023;-72
2022/09/11 05:35:22;;;;;;;6.30;4.37;;;;;;;16.89;71.02;94707.16;5111878;27;20112;-72
2022/09/11 05:37:48;;;;;;;6.00;5.20;;;;;;;17.02;70.97;94706.66;5132516;27;20035;-72
2022/09/11 05:40:13;;;;;;;5.40;4.75;;;;;;;17.13;70.91;94708.91;5126728;27;20031;-72
2022/09/11 05:42:39;;;;;;;6.00;5.38;;;;;;;17.26;70.20;94705.72;5135914;27;20483;-72
2022/09/11 05:45:05;;;;;;;5.70;5.05;;;;;;;17.48;69.97;94705.97;5123005;27;20457;-72
2022/09/11 05:47:31;;;;;;;7.57;6.70;;;;;;;17.66;69.69;94701.25;5131780;27;20027;-72
2022/09/11 05:49:56;;;;;;;6.63;5.95;;;;;;;17.83;67.58;94702.03;5114081;27;20039;-72
2022/09/11 05:52:23;;;;;;;6.82;6.20;;;;;;;18.03;67.14;94697.13;5120780;27;20104;-72
2022/09/11 05:54:49;;;;;;;10.23;5.55;;;;;;;18.22;66.88;94698.44;5124002;27;20023;-72
2022/09/11 05:57:14;;;;;;;8.18;5.80;;;;;;;18.41;67.10;94695.31;5115768;27;20481;-73
2022/09/11 05:59:40;;;;;;;6.88;6.28;;;;;;;18.48;64.14;94690.19;5131361;27;20023;-71
2022/09/11 06:02:05;;;;;;;6.53;5.75;;;;;;;18.50;64.65;94690.84;5130401;27;20050;-72
2022/09/11 06:04:31;;;;;;;6.47;5.82;;;;;;;18.62;64.30;94696.47;5080755;27;20031;-72
2022/09/11 06:06:56;;;;;;;7.20;6.10;;;;;;;18.74;63.76;94700.31;5132762;27;20038;-72
2022/09/11 06:09:22;;;;;;;10.65;7.55;;;;;;;18.91;64.47;94698.31;5131314;27;20042;-72
2022/09/11 06:11:48;;;;;;;10.32;6.72;;;;;;;19.07;64.15;94694.72;5132615;27;20369;-71
2022/09/11 06:14:13;;;;;;;7.72;6.07;;;;;;;19.24;64.31;94696.16;5121402;27;20030;-72
2022/09/11 06:16:39;;;;;;;6.18;5.57;;;;;;;19.34;62.10;94693.25;5128855;27;20031;-72
2022/09/11 06:19:05;;;;;;;11.05;6.47;;;;;;;19.57;62.97;94696.56;5126223;27;20175;-72
2022/09/11 06:21:31;;;;;;;7.38;5.80;;;;;;;19.75;61.50;94698.81;5111762;27;20067;-72
2022/09/11 06:23:56;;;;;;;9.13;6.53;;;;;;;19.96;61.85;94703.28;5122205;27;20088;-73
2022/09/11 06:26:23;;;;;;;9.23;8.10;;;;;;;20.16;61.85;94702.66;5110347;27;20031;-72
2022/09/11 06:28:49;;;;;;;7.93;6.25;;;;;;;20.38;60.25;94703.47;5098946;28;20035;-72
2022/09/11 06:31:17;;;;;;;8.87;7.43;;;;;;;20.51;59.33;94707.03;5109941;27;20024;-72
2022/09/11 06:33:42;;;;;;;7.93;6.90;;;;;;;20.46;59.33;94696.25;5123122;27;20067;-73
2022/09/11 06:36:10;;;;;;;8.95;7.50;;;;;;;20.65;59.70;94696.63;5123227;27;20081;-72
2022/09/11 06:38:35;;;;;;;9.93;8.97;;;;;;;20.94;58.93;94695.59;5126953;27;20108;-72
2022/09/11 06:41:02;;;;;;;10.40;9.40;;;;;;;20.95;58.75;94699.88;5130722;27;20077;-72
2022/09/11 06:43:27;;;;;;;8.63;7.43;;;;;;;21.24;58.41;94704.09;5107507;27;20034;-72
2022/09/11 06:45:53;;;;;;;10.82;9.32;;;;;;;21.50;57.47;94707.91;5107537;27;20472;-72
2022/09/11 06:48:18;;;;;;;12.68;9.10;;;;;;;21.67;56.76;94714.47;5130178;27;20019;-72
2022/09/11 06:50:44;;;;;;;13.70;12.33;;;;;;;21.79;56.67;94718.19;5105887;28;20034;-73
2022/09/11 06:53:10;;;;;;;12.93;11.48;;;;;;;22.04;56.26;94722.94;5093641;27;20054;-73
2022/09/11 06:55:35;;;;;;;8.65;7.85;;;;;;;22.16;54.52;94717.88;5099787;27;20066;-73
2022/09/11 06:58:03;;;;;;;11.63;10.45;;;;;;;22.16;55.15;94723.97;5107989;28;20027;-72
2022/09/11 07:00:29;;;;;;;9.07;8.18;;;;;;;22.25;54.52;94722.78;5126569;27;20046;-72
2022/09/11 07:02:55;;;;;;;7.97;7.13;;;;;;;22.37;53.36;94720.38;5115126;27;20111;-73
2022/09/11 07:05:21;;;;;;;8.40;7.60;;;;;;;22.45;53.04;94720.16;5107249;27;20109;-72
2022/09/11 07:07:49;;;;;;;8.00;7.13;;;;;;;22.50;52.28;94719.56;5107063;27;20362;-72
2022/09/11 07:10:15;;;;;;;8.13;7.20;;;;;;;22.49;52.00;94707.38;5126704;27;20123;-73
2022/09/11 07:12:40;;;;;;;9.50;6.77;;;;;;;22.63;51.21;94714.28;5127832;27;20033;-74
2022/09/11 07:15:07;;;;;;;9.67;6.80;;;;;;;22.73;51.69;94717.34;5118869;27;20454;-73
2022/09/11 07:17:32;;;;;;;7.55;6.85;;;;;;;22.78;50.74;94711.41;5107405;27;20035;-72
2022/09/11 07:19:59;;;;;;;7.40;6.70;;;;;;;22.65;50.51;94700.81;5125631;27;20043;-73
2022/09/11 07:22:25;;;;;;;8.75;7.20;;;;;;;22.85;50.90;94704.28;5109592;27;20035;-72
2022/09/11 07:24:53;;;;;;;7.57;6.57;;;;;;;22.96;49.97;94713.47;5130468;27;20023;-72
2022/09/11 07:27:19;;;;;;;9.98;7.40;;;;;;;22.95;49.98;94717.09;5117045;28;20523;-72
2022/09/11 07:29:45;;;;;;;6.43;5.82;;;;;;;23.01;49.94;94713.66;5093240;28;20035;-72
2022/09/11 07:32:10;;;;;;;6.57;5.90;;;;;;;23.06;49.47;94713.84;5097576;28;20038;-72
2022/09/11 07:34:36;;;;;;;6.40;5.80;;;;;;;23.13;48.61;94701.41;5130472;27;20035;-73
2022/09/11 07:37:01;;;;;;;6.30;5.47;;;;;;;23.08;47.50;94700.41;5131828;27;20035;-72
2022/09/11 07:39:27;;;;;;;7.68;6.93;;;;;;;23.14;49.09;94708.34;5131763;27;20511;-72
2022/09/11 07:41:52;;;;;;;5.47;4.97;;;;;;;23.22;46.99;94706.50;5120124;28;20016;-73
2022/09/11 07:44:19;;;;;;;5.80;5.30;;;;;;;23.25;46.62;94704.25;5109211;28;20031;-73
2022/09/11 07:46:44;;;;;;;6.50;5.80;;;;;;;23.23;47.42;94706.28;5119473;28;20499;-72
2022/09/11 07:49:10;;;;;;;6.70;6.10;;;;;;;23.27;47.58;94698.75;5127886;28;20031;-72
2022/09/11 07:51:38;;;;;;;6.55;5.93;;;;;;;23.35;46.29;94696.69;5126721;28;20450;-72
2022/09/11 07:54:04;;;;;;;7.57;6.40;;;;;;;23.24;45.09;94704.47;5128786;27;20047;-73
2022/09/11 07:56:30;;;;;;;7.13;5.95;;;;;;;23.35;45.59;94691.38;5130140;27;20023;-73
2022/09/11 07:58:55;;;;;;;6.68;6.07;;;;;;;23.48;44.85;94695.81;5096055;28;20848;-72
2022/09/11 08:01:28;;;;;;;7.30;6.60;;;;;;;23.48;45.12;94693.16;5115136;27;20164;-74
2022/09/11 08:04:04;;;;;;;7.65;6.05;;;;;;;23.44;44.14;94686.66;5132584;27;20026;-74
2022/09/11 08:06:31;;;;;;;7.20;6.50;;;;;;;23.44;45.04;94676.06;5123152;27;20480;-74
2022/09/11 08:08:59;;;;;;;6.55;5.95;;;;;;;23.44;44.33;94686.66;5122989;27;20063;-74
2022/09/11 08:11:24;;;;;;;7.10;6.32;;;;;;;23.47;45.20;94677.47;5126129;27;20118;-75
2022/09/11 08:13:51;;;;;;;7.30;6.70;;;;;;;23.49;44.59;94684.19;5129357;27;20076;-74
2022/09/11 08:16:20;;;;;;;7.18;6.47;;;;;;;23.47;44.39;94680.13;5103527;27;20130;-74
2022/09/11 08:18:47;;;;;;;6.85;6.25;;;;;;;23.48;43.29;94668.50;5122786;27;20030;-75
2022/09/11 08:21:12;;;;;;;6.60;6.00;;;;;;;23.52;43.88;94677.66;5118047;27;20488;-75
2022/09/11 08:23:42;;;;;;;7.10;6.40;;;;;;;23.57;43.97;94668.06;5096250;27;20033;-74
2022/09/11 08:26:18;;;;;;;8.85;6.43;;;;;;;23.63;44.19;94667.22;5134024;27;20026;-75
2022/09/11 08:28:44;;;;;;;7.20;6.50;;;;;;;23.73;45.12;94663.31;5134302;27;20031;-75
2022/09/11 08:31:09;;;;;;;9.02;6.45;;;;;;;23.84;45.41;94658.13;5138411;27;20035;-75
2022/09/11 08:33:35;;;;;;;7.60;6.00;;;;;;;23.89;44.36;94664.66;5141468;27;20479;-75
2022/09/11 08:36:02;;;;;;;6.50;5.85;;;;;;;23.98;44.42;94661.53;5135930;27;20019;-74
2022/09/11 08:38:28;;;;;;;7.35;6.63;;;;;;;23.97;43.70;94654.59;5134718;27;20031;-74
2022/09/11 08:40:55;;;;;;;7.30;6.60;;;;;;;24.06;42.72;94658.63;5129049;27;20026;-74
2022/09/11 08:43:31;;;;;;;8.57;6.90;;;;;;;24.11;41.76;94657.19;5095351;28;20040;-72
2022/09/11 08:45:59;;;;;;;8.10;7.30;;;;;;;24.21;43.17;94662.81;5111241;27;20066;-72
2022/09/11 08:48:33;;;;;;;7.97;7.22;;;;;;;24.26;42.69;94658.47;5094248;27;20496;-72
2022/09/11 08:50:58;;;;;;;7.95;7.15;;;;;;;24.30;42.98;94651.72;5127998;27;20041;-72
2022/09/11 08:53:24;;;;;;;7.95;6.90;;;;;;;24.24;42.76;94646.47;5131488;27;20039;-72
2022/09/11 08:55:51;;;;;;;8.68;7.75;;;;;;;24.34;42.86;94651.28;5110431;27;20095;-73
2022/09/11 08:58:39;;;;;;;8.10;7.30;;;;;;;24.30;42.68;94649.06;5132523;27;20039;-73
2022/09/11 09:01:13;;;;;;;8.00;7.20;;;;;;;24.31;42.29;94648.03;5125837;27;20732;-74
2022/09/11 09:04:34;;;;;;;8.93;7.35;;;;;;;24.40;42.74;94640.59;5121204;27;20019;-73
2022/09/11 09:07:05;;;;;;;6.80;6.20;;;;;;;24.42;40.91;94637.75;5105013;27;20035;-72
2022/09/11 09:09:40;;;;;;;7.97;7.18;;;;;;;24.52;42.26;94636.25;5121421;27;20706;-72
2022/09/11 09:12:19;;;;;;;7.82;7.13;;;;;;;24.48;42.56;94640.38;5123331;27;20596;-72
2022/09/11 09:14:54;;;;;;;10.65;6.88;;;;;;;24.56;42.58;94630.53;5120442;27;20479;-72
2022/09/11 09:17:25;;;;;;;9.18;7.22;;;;;;;24.63;42.13;94628.63;5120907;27;20126;-74
2022/09/11 09:20:08;;;;;;;9.60;7.82;;;;;;;24.69;42.94;94625.91;5108398;27;20054;-73
2022/09/11 09:22:52;;;;;;;8.70;7.90;;;;;;;24.75;42.00;94624.22;5107967;27;20027;-72
2022/09/11 09:25:21;;;;;;;8.60;7.18;;;;;;;24.80;42.53;94619.06;5119350;27;20035;-73
2022/09/11 09:27:51;;;;;;;8.10;7.32;;;;;;;24.93;42.59;94618.94;5118711;27;20026;-75
2022/09/11 09:30:22;;;;;;;8.38;7.50;;;;;;;24.93;41.50;94603.00;5119232;27;20028;-73
2022/09/11 09:32:59;;;;;;;10.20;7.43;;;;;;;25.11;42.49;94622.63;5106927;27;20042;-75
2022/09/11 09:35:28;;;;;;;7.53;6.82;;;;;;;25.09;41.56;94606.88;5102384;27;20626;-78
2022/09/11 09:37:53;;;;;;;8.98;8.07;;;;;;;25.23;42.03;94604.09;5094939;27;20103;-74
2022/09/11 09:40:19;;;;;;;9.07;8.18;;;;;;;25.18;42.05;94602.94;5112131;27;20173;-74
2022/09/11 09:43:11;;;;;;;9.77;7.82;;;;;;;25.19;41.21;94620.50;5128373;27;20038;-74
2022/09/11 09:45:44;;;;;;;7.95;7.20;;;;;;;25.16;40.17;94612.97;5115601;27;20079;-75
2022/09/11 09:48:10;;;;;;;9.07;7.82;;;;;;;25.15;40.70;94599.91;5085076;27;20053;-74
2022/09/11 09:50:40;;;;;;;7.93;7.22;;;;;;;25.20;40.11;94608.03;5101711;27;20035;-75
2022/09/11 09:53:28;;;;;;;7.78;7.05;;;;;;;25.22;40.74;94599.84;5099887;27;20034;-72
2022/09/11 09:55:54;;;;;;;8.48;7.00;;;;;;;25.24;39.18;94593.25;5120028;27;20424;-74
2022/09/11 09:58:22;;;;;;;8.10;6.93;;;;;;;24.83;37.93;94589.41;5115629;27;20118;-74
2022/09/11 10:00:48;;;;;;;7.43;6.72;;;;;;;24.97;39.37;94588.22;5109427;27;20027;-76
2022/09/11 10:03:18;;;;;;;8.18;7.47;;;;;;;25.07;38.89;94585.03;5095534;27;20039;-76
2022/09/11 10:05:43;;;;;;;9.13;8.18;;;;;;;25.15;39.09;94595.38;5130665;27;20015;-76
2022/09/11 10:08:25;;;;;;;9.63;8.68;;;;;;;25.21;39.18;94596.34;5090030;28;20035;-77
2022/09/11 10:11:17;;;;;;;7.55;6.85;;;;;;;25.21;36.92;94582.25;5132041;27;20509;-79
2022/09/11 10:13:42;;;;;;;8.40;6.00;;;;;;;25.29;37.45;94588.06;5113863;27;20052;-77
2022/09/11 10:16:22;;;;;;;7.35;6.45;;;;;;;25.32;37.93;94579.63;5099087;27;20031;-75
2022/09/11 10:18:47;;;;;;;7.43;6.18;;;;;;;25.38;37.11;94580.59;5119782;27;20474;-75
2022/09/11 10:21:21;;;;;;;7.35;6.60;;;;;;;25.34;38.37;94574.13;5111852;27;20102;-75
2022/09/11 10:23:55;;;;;;;6.90;6.30;;;;;;;25.33;37.76;94581.28;5121660;27;20022;-75
2022/09/11 10:26:44;;;;;;;7.20;6.47;;;;;;;25.37;38.79;94582.44;5138749;27;20029;-75
2022/09/11 10:29:14;;;;;;;6.53;5.40;;;;;;;25.37;36.97;94573.66;5129689;27;20440;-75
2022/09/11 10:31:40;;;;;;;7.03;5.78;;;;;;;25.38;37.46;94573.44;5120177;27;20110;-73
2022/09/11 10:34:06;;;;;;;6.63;5.97;;;;;;;25.38;37.45;94562.81;5103731;28;20046;-73
2022/09/11 10:36:33;;;;;;;5.88;5.18;;;;;;;25.40;36.42;94582.00;5093590;28;20027;-72
2022/09/11 10:38:59;;;;;;;6.57;5.90;;;;;;;25.40;36.40;94571.34;5095757;27;20046;-73
2022/09/11 10:41:25;;;;;;;7.57;5.97;;;;;;;25.37;36.41;94563.84;5108146;27;20034;-72
2022/09/11 10:44:09;;;;;;;8.13;5.47;;;;;;;25.48;36.14;94566.78;5096110;28;20039;-73
2022/09/11 10:46:39;;;;;;;6.78;6.18;;;;;;;25.48;37.56;94554.28;5103286;27;20031;-73
2022/09/11 10:49:04;;;;;;;6.73;6.13;;;;;;;25.45;36.65;94557.41;5113920;27;20043;-73
2022/09/11 10:51:35;;;;;;;8.65;6.40;;;;;;;25.50;37.47;94554.88;5130478;27;20075;-73
2022/09/11 10:54:06;;;;;;;;;;;;;;;25.47;36.88;94560.66;5113614;27;20035;-73
2022/09/11 10:56:39;;;;;;;6.97;6.28;;;;;;;25.50;37.38;94554.06;5112861;27;19922;-73
2022/09/11 10:59:06;;;;;;;7.07;6.47;;;;;;;25.49;37.62;94552.44;5097126;27;20537;-73
2022/09/11 11:01:31;;;;;;;8.48;6.65;;;;;;;25.46;37.76;94558.22;5130543;27;20023;-73
2022/09/11 11:03:57;;;;;;;6.78;6.13;;;;;;;25.43;37.28;94562.13;5129819;27;20043;-73
2022/09/11 11:06:41;;;;;;;7.13;6.53;;;;;;;25.40;38.24;94549.28;5113403;27;20027;-73
2022/09/11 11:09:41;;;;;;;7.95;7.15;;;;;;;25.38;38.05;94549.53;5113710;27;20103;-73
2022/09/11 11:12:41;;;;;;;6.30;5.70;;;;;;;25.27;37.59;94539.66;5106004;27;20092;-73
2022/09/11 11:15:09;;;;;;;7.05;6.15;;;;;;;25.35;37.36;94552.63;5126180;27;20125;-73
2022/09/11 11:17:49;;;;;;;6.35;5.75;;;;;;;25.36;37.35;94546.28;5129729;27;20454;-73
2022/09/11 11:20:18;;;;;;;;;;;;;;;25.36;37.73;94543.63;5130375;27;20035;-73
2022/09/11 11:23:18;;;;;;;7.15;6.07;;;;;;;25.37;38.00;94537.25;5129706;27;19922;-73
2022/09/11 11:26:03;;;;;;;6.85;6.15;;;;;;;25.28;38.60;94527.97;5130911;28;20084;-73
2022/09/11 11:28:58;;;;;;;7.57;6.78;;;;;;;25.26;40.03;94522.06;5131664;27;20027;-73
2022/09/11 11:31:47;;;;;;;7.00;6.30;;;;;;;25.24;39.51;94533.97;5131797;27;20031;-72
2022/09/11 11:35:00;;;;;;;6.60;5.90;;;;;;;25.28;38.48;94520.00;5131847;27;20119;-73
2022/09/11 11:37:35;;;;;;;7.65;6.95;;;;;;;25.32;39.87;94523.00;5130712;27;20074;-73
2022/09/11 11:40:15;;;;;;;6.78;6.18;;;;;;;25.37;39.34;94513.31;5118409;27;20063;-73
2022/09/11 11:42:45;;;;;;;10.18;6.57;;;;;;;25.36;38.38;94521.53;5136314;27;20046;-73
2022/09/11 11:45:51;;;;;;;7.13;6.43;;;;;;;25.21;38.33;94513.16;5135014;27;20400;-73
2022/09/11 11:48:58;;;;;;;6.72;6.00;;;;;;;25.10;38.81;94504.91;5092372;28;20074;-73